Time;durP1;ratioP1;P1;durP2;ratioP2;P2;SDS_P1;SDS_P2;PMS_P1;PMS_P2;Temp;Humidity;BMP_temperature;BMP_pressure;BME280_temperature;BME280_humidity;BME280_pressure;Samples;Min_cycle;Max_cycle;Signal;HPM_P1;HPM_P2
2023/03/14 00:01:14;;;;;;;4.90;2.10;;;11.80;99.90;;;;;;5060892;28;20421;-76
2023/03/14 00:03:40;;;;;;;5.60;1.40;;;11.80;99.90;;;;;;5048689;28;20526;-75
2023/03/14 00:06:07;;;;;;;5.00;1.90;;;11.80;99.90;;;;;;5049346;28;20444;-76
2023/03/14 00:08:33;;;;;;;8.57;1.80;;;11.70;99.90;;;;;;5049029;28;20181;-76
2023/03/14 00:11:07;;;;;;;3.27;1.77;;;11.70;99.90;;;;;;5049075;28;20455;-76
2023/03/14 00:13:33;;;;;;;3.17;1.87;;;11.70;99.90;;;;;;5047544;28;20464;-76
2023/03/14 00:16:10;;;;;;;3.43;1.70;;;11.70;99.90;;;;;;5049872;28;20490;-76
2023/03/14 00:18:36;;;;;;;2.50;1.47;;;11.70;99.90;;;;;;5048813;28;20173;-77
2023/03/14 00:21:04;;;;;;;5.40;1.90;;;11.70;99.90;;;;;;5049377;28;20491;-76
2023/03/14 00:23:31;;;;;;;2.40;1.50;;;11.70;99.90;;;;;;5049213;28;20827;-76
2023/03/14 00:26:05;;;;;;;3.87;1.47;;;11.70;99.90;;;;;;5049373;28;20448;-76
2023/03/14 00:28:31;;;;;;;6.03;1.70;;;11.70;99.90;;;;;;5048881;28;20421;-76
2023/03/14 00:30:56;;;;;;;3.30;1.23;;;11.70;99.90;;;;;;5048902;28;20420;-76
2023/03/14 00:33:22;;;;;;;3.97;1.53;;;11.70;99.90;;;;;;5048615;28;20546;-77
2023/03/14 00:35:59;;;;;;;7.33;2.07;;;11.70;99.90;;;;;;5048893;28;20236;-76
2023/03/14 00:38:25;;;;;;;2.83;1.47;;;11.70;99.90;;;;;;5029419;28;20255;-77
2023/03/14 00:40:52;;;;;;;7.03;2.07;;;11.60;99.90;;;;;;5028801;28;20413;-77
2023/03/14 00:43:21;;;;;;;4.17;1.60;;;11.60;99.90;;;;;;5028627;28;20805;-77
2023/03/14 00:45:47;;;;;;;4.73;1.80;;;11.60;99.90;;;;;;5028973;28;20806;-77
2023/03/14 00:48:13;;;;;;;3.00;1.60;;;11.60;99.90;;;;;;5028500;28;20491;-76
2023/03/14 00:50:39;;;;;;;3.77;1.40;;;11.60;99.90;;;;;;5028692;28;21075;-76
2023/03/14 00:53:05;;;;;;;4.73;2.30;;;11.60;99.90;;;;;;5028256;28;20490;-77
2023/03/14 00:55:30;;;;;;;4.80;1.50;;;11.60;99.90;;;;;;5028683;28;20460;-76
2023/03/14 00:57:56;;;;;;;6.50;1.70;;;11.60;99.90;;;;;;5043744;28;20793;-77
2023/03/14 01:00:23;;;;;;;3.80;1.50;;;11.60;99.90;;;;;;5028663;28;20189;-77
2023/03/14 01:02:49;;;;;;;7.97;2.10;;;11.70;99.90;;;;;;5028406;28;20198;-77
2023/03/14 01:05:14;;;;;;;3.10;1.60;;;11.70;99.90;;;;;;5028614;28;20963;-76
2023/03/14 01:07:40;;;;;;;6.27;1.53;;;11.70;99.90;;;;;;5027315;28;20185;-77
2023/03/14 01:10:07;;;;;;;1.43;0.70;;;11.60;99.90;;;;;;5027205;28;20269;-76
2023/03/14 01:12:32;;;;;;;2.20;1.20;;;11.60;99.90;;;;;;5042696;28;20688;-77
2023/03/14 01:14:58;;;;;;;1.60;0.70;;;11.50;99.90;;;;;;5048109;28;20416;-76
2023/03/14 01:17:24;;;;;;;4.33;1.37;;;11.40;99.90;;;;;;5048041;28;20185;-76
2023/03/14 01:19:50;;;;;;;2.27;0.90;;;11.30;99.90;;;;;;5048028;28;20182;-76
2023/03/14 01:22:15;;;;;;;2.00;1.10;;;11.20;99.90;;;;;;5048236;28;20239;-77
2023/03/14 01:24:41;;;;;;;2.30;0.90;;;11.10;99.90;;;;;;5046984;28;20205;-77
2023/03/14 01:27:07;;;;;;;2.50;1.17;;;11.00;99.90;;;;;;5048021;28;20185;-76
2023/03/14 01:29:32;;;;;;;4.30;1.00;;;10.90;99.90;;;;;;5048741;28;20246;-76
2023/03/14 01:31:58;;;;;;;1.43;0.90;;;10.90;99.90;;;;;;5052388;28;20260;-76
2023/03/14 01:34:24;;;;;;;2.40;1.10;;;10.90;99.90;;;;;;5051993;28;20696;-77
2023/03/14 01:36:49;;;;;;;2.90;1.17;;;10.90;99.90;;;;;;5059857;28;20259;-77
2023/03/14 01:39:15;;;;;;;2.10;0.90;;;10.90;99.90;;;;;;5072144;28;20169;-77
2023/03/14 01:41:41;;;;;;;3.37;1.30;;;10.90;99.90;;;;;;5070438;28;20184;-77
2023/03/14 01:44:11;;;;;;;3.70;0.90;;;10.90;99.90;;;;;;5071659;28;20197;-77
2023/03/14 01:46:42;;;;;;;3.80;1.70;;;10.80;99.90;;;;;;5070808;28;20188;-77
2023/03/14 01:49:32;;;;;;;3.20;2.00;;;10.80;99.90;;;;;;5070650;28;20493;-76
2023/03/14 01:52:10;;;;;;;2.17;1.00;;;10.80;99.90;;;;;;5071906;28;20452;-77
2023/03/14 01:54:40;;;;;;;3.87;1.50;;;10.70;99.90;;;;;;5071966;28;20931;-77
2023/03/14 01:57:18;;;;;;;8.57;1.83;;;10.70;99.90;;;;;;5057110;28;20463;-77
2023/03/14 01:59:53;;;;;;;3.03;1.40;;;10.70;99.90;;;;;;5051836;28;20762;-77
2023/03/14 02:02:18;;;;;;;4.03;1.70;;;10.70;99.90;;;;;;5051574;28;20449;-76
2023/03/14 02:04:45;;;;;;;2.00;1.00;;;10.70;99.90;;;;;;5051816;28;20408;-76
2023/03/14 02:07:27;;;;;;;6.63;1.23;;;10.70;99.90;;;;;;5050354;28;20802;-77
2023/03/14 02:09:55;;;;;;;2.83;1.10;;;10.70;99.90;;;;;;5051432;28;20440;-77
2023/03/14 02:12:22;;;;;;;3.67;1.10;;;10.70;99.90;;;;;;5051140;28;20434;-77
2023/03/14 02:14:48;;;;;;;3.87;1.30;;;10.60;99.90;;;;;;5051298;28;20424;-76
2023/03/14 02:17:16;;;;;;;4.13;1.30;;;10.60;99.90;;;;;;5050146;28;20990;-76
2023/03/14 02:20:05;;;;;;;2.63;1.17;;;10.50;99.90;;;;;;5051625;28;20935;-76
2023/03/14 02:22:31;;;;;;;3.17;1.40;;;10.60;99.90;;;;;;5050178;28;20436;-76
2023/03/14 02:25:06;;;;;;;6.83;1.23;;;10.60;99.90;;;;;;5049769;28;20967;-76
2023/03/14 02:27:33;;;;;;;3.40;1.20;;;10.50;99.90;;;;;;5049733;28;20431;-76
2023/03/14 02:30:03;;;;;;;3.93;0.97;;;10.40;99.90;;;;;;5049788;28;20416;-76
2023/03/14 02:32:32;;;;;;;3.90;1.10;;;10.40;99.90;;;;;;5051116;28;20948;-77
2023/03/14 02:35:00;;;;;;;7.20;1.40;;;10.40;99.90;;;;;;5049510;28;20427;-76
2023/03/14 02:37:34;;;;;;;4.50;1.27;;;10.50;99.90;;;;;;5050852;28;20424;-76
2023/03/14 02:40:00;;;;;;;3.50;1.20;;;10.50;99.90;;;;;;5050574;28;20408;-76
2023/03/14 02:42:26;;;;;;;3.67;1.10;;;10.50;99.90;;;;;;5049488;28;20821;-76
2023/03/14 02:45:19;;;;;;;4.40;1.80;;;10.50;99.90;;;;;;5050774;28;20174;-77
2023/03/14 02:47:58;;;;;;;6.80;1.53;;;10.50;99.90;;;;;;5050707;28;20273;-76
2023/03/14 02:50:29;;;;;;;3.53;1.33;;;10.50;99.90;;;;;;5049498;28;20435;-76
2023/03/14 02:52:54;;;;;;;5.53;1.37;;;10.50;99.90;;;;;;5050625;28;20447;-75
2023/03/14 02:55:25;;;;;;;6.90;1.83;;;10.50;99.90;;;;;;5050537;28;20452;-76
2023/03/14 02:57:51;;;;;;;5.77;1.40;;;10.50;99.90;;;;;;5050510;28;20208;-76
2023/03/14 03:00:17;;;;;;;3.90;1.20;;;10.50;99.90;;;;;;5050498;28;20455;-76
2023/03/14 03:02:43;;;;;;;4.17;1.57;;;10.50;99.90;;;;;;5050437;28;20201;-76
2023/03/14 03:05:08;;;;;;;4.50;1.20;;;10.50;99.90;;;;;;5049187;28;20950;-76
2023/03/14 03:07:34;;;;;;;6.13;1.33;;;10.50;99.90;;;;;;5050277;28;20186;-76
2023/03/14 03:10:00;;;;;;;5.43;1.40;;;10.50;99.90;;;;;;5050331;28;20181;-77
2023/03/14 03:12:25;;;;;;;2.47;1.27;;;10.50;99.90;;;;;;5048894;28;20670;-76
2023/03/14 03:14:51;;;;;;;4.50;1.23;;;10.40;99.90;;;;;;5050179;28;20638;-76
2023/03/14 03:17:17;;;;;;;5.27;1.40;;;10.50;99.90;;;;;;5048935;28;20598;-77
2023/03/14 03:19:43;;;;;;;2.70;1.43;;;10.50;99.90;;;;;;5050219;28;20211;-77
2023/03/14 03:22:08;;;;;;;2.67;1.20;;;10.50;99.90;;;;;;5050129;28;20311;-77
2023/03/14 03:24:34;;;;;;;1.43;1.10;;;10.50;99.90;;;;;;5049953;28;20189;-76
2023/03/14 03:27:00;;;;;;;3.70;1.27;;;10.50;99.90;;;;;;5048791;28;20204;-77
2023/03/14 03:29:25;;;;;;;2.40;1.47;;;10.50;99.90;;;;;;5048630;28;20185;-76
2023/03/14 03:31:51;;;;;;;5.00;1.27;;;10.40;99.90;;;;;;5049981;28;20178;-76
2023/03/14 03:34:17;;;;;;;2.53;1.27;;;10.40;99.90;;;;;;5048478;28;20205;-76
2023/03/14 03:36:45;;;;;;;7.50;1.50;;;10.50;99.90;;;;;;5049925;28;20206;-76
2023/03/14 03:39:11;;;;;;;7.37;1.60;;;10.40;99.90;;;;;;5048781;28;20201;-77
2023/03/14 03:41:37;;;;;;;3.40;1.23;;;10.40;99.90;;;;;;5048424;28;20416;-77
2023/03/14 03:44:03;;;;;;;5.70;1.20;;;10.40;99.90;;;;;;5049541;28;20398;-77
2023/03/14 03:46:28;;;;;;;2.83;1.13;;;10.40;99.90;;;;;;5049739;28;20266;-77
2023/03/14 03:48:59;;;;;;;3.80;1.03;;;10.40;99.90;;;;;;5049539;28;20518;-77
2023/03/14 03:51:25;;;;;;;4.67;1.57;;;10.40;99.90;;;;;;5049354;28;20530;-77
2023/03/14 03:53:51;;;;;;;2.90;0.90;;;10.50;99.90;;;;;;5048704;28;20470;-77
2023/03/14 03:56:17;;;;;;;4.73;1.20;;;10.50;99.90;;;;;;5049902;28;20459;-77
2023/03/14 03:58:43;;;;;;;3.07;1.40;;;10.40;99.90;;;;;;5048163;28;20178;-77
2023/03/14 04:01:09;;;;;;;2.33;1.20;;;10.50;99.90;;;;;;5049409;28;20181;-77
2023/03/14 04:03:35;;;;;;;3.30;1.20;;;10.40;99.90;;;;;;5049141;28;20436;-76
2023/03/14 04:06:06;;;;;;;4.77;1.17;;;10.40;99.90;;;;;;5048237;28;20432;-76
2023/03/14 04:08:32;;;;;;;1.60;0.90;;;10.40;99.90;;;;;;5049145;28;20482;-77
2023/03/14 04:10:59;;;;;;;3.80;1.30;;;10.40;99.90;;;;;;5047970;28;20455;-77
2023/03/14 04:13:26;;;;;;;5.83;1.40;;;10.40;99.90;;;;;;5048808;28;20299;-77
2023/03/14 04:15:53;;;;;;;3.37;1.40;;;10.40;99.90;;;;;;5049329;28;20452;-77
2023/03/14 04:18:18;;;;;;;3.07;1.00;;;10.40;99.90;;;;;;5048945;28;20784;-77
2023/03/14 04:20:44;;;;;;;1.27;0.87;;;10.40;99.90;;;;;;5049080;28;20417;-77
2023/03/14 04:23:10;;;;;;;1.87;0.90;;;10.40;99.90;;;;;;5048731;28;20197;-77
2023/03/14 04:25:36;;;;;;;2.00;0.93;;;10.30;99.90;;;;;;5049134;28;20236;-77
2023/03/14 04:28:03;;;;;;;3.00;1.23;;;10.30;99.90;;;;;;5048804;28;20450;-77
2023/03/14 04:30:28;;;;;;;1.80;0.70;;;10.40;99.90;;;;;;5048800;28;20823;-77
2023/03/14 04:32:54;;;;;;;2.03;0.50;;;10.30;99.90;;;;;;5048877;28;20518;-77
2023/03/14 04:35:20;;;;;;;1.33;0.60;;;10.30;99.90;;;;;;5048908;28;20566;-77
2023/03/14 04:37:48;;;;;;;4.20;0.63;;;10.30;99.90;;;;;;5048592;28;20190;-77
2023/03/14 04:40:15;;;;;;;1.50;0.53;;;10.20;99.90;;;;;;5048707;28;20170;-77
2023/03/14 04:42:41;;;;;;;4.23;1.27;;;10.20;99.90;;;;;;5048700;28;20433;-77
2023/03/14 04:45:07;;;;;;;2.20;0.67;;;10.10;99.90;;;;;;5048540;28;20473;-77
2023/03/14 04:47:33;;;;;;;1.43;0.60;;;10.20;99.90;;;;;;5048529;28;20589;-77
2023/03/14 04:49:58;;;;;;;2.23;0.80;;;10.20;99.90;;;;;;5048617;28;20413;-77
2023/03/14 04:52:25;;;;;;;2.80;0.90;;;10.20;99.90;;;;;;5048563;28;20237;-77
2023/03/14 04:54:51;;;;;;;1.20;0.70;;;10.20;99.90;;;;;;5047126;28;20246;-77
2023/03/14 04:57:16;;;;;;;3.13;0.97;;;10.20;99.90;;;;;;5048370;28;20976;-77
2023/03/14 04:59:42;;;;;;;1.33;0.60;;;10.20;99.90;;;;;;5048614;28;20174;-77
2023/03/14 05:02:08;;;;;;;1.37;0.90;;;10.20;99.90;;;;;;5048521;28;20181;-77
2023/03/14 05:04:33;;;;;;;0.80;0.40;;;10.20;99.90;;;;;;5047067;28;20189;-77
2023/03/14 05:06:59;;;;;;;0.93;0.50;;;10.10;99.90;;;;;;5047122;28;20182;-77
2023/03/14 05:09:26;;;;;;;0.67;0.47;;;10.10;99.90;;;;;;5048485;28;20188;-77
2023/03/14 05:11:51;;;;;;;0.60;0.37;;;10.10;99.90;;;;;;5048554;28;20416;-77
2023/03/14 05:14:17;;;;;;;1.20;0.40;;;10.00;99.90;;;;;;5048206;28;20533;-77
2023/03/14 05:16:43;;;;;;;0.50;0.30;;;10.00;99.90;;;;;;5047251;28;20220;-77
2023/03/14 05:19:09;;;;;;;0.70;0.30;;;10.00;99.90;;;;;;5048361;28;20669;-77
2023/03/14 05:21:35;;;;;;;0.70;0.30;;;9.90;99.90;;;;;;5048118;28;20610;-77
2023/03/14 05:24:01;;;;;;;0.50;0.30;;;9.80;99.90;;;;;;5048012;28;20455;-77
2023/03/14 05:26:26;;;;;;;0.70;0.33;;;9.80;99.90;;;;;;5048666;28;20186;-77
2023/03/14 05:28:52;;;;;;;1.87;0.40;;;9.80;99.90;;;;;;5047604;28;20173;-77
2023/03/14 05:31:17;;;;;;;1.13;0.40;;;9.80;99.90;;;;;;5046931;28;20247;-77
2023/03/14 05:33:43;;;;;;;1.13;0.30;;;9.80;99.90;;;;;;5048082;28;20201;-77
2023/03/14 05:36:09;;;;;;;0.50;0.30;;;9.70;99.90;;;;;;5048158;28;20296;-77
2023/03/14 05:38:34;;;;;;;0.70;0.40;;;9.80;99.90;;;;;;5046877;28;20642;-77
2023/03/14 05:41:00;;;;;;;0.50;0.30;;;9.80;99.90;;;;;;5048120;28;20178;-77
2023/03/14 05:43:26;;;;;;;1.07;0.30;;;9.80;99.90;;;;;;5047885;28;20202;-77
2023/03/14 05:45:51;;;;;;;1.23;0.40;;;9.80;99.90;;;;;;5046877;28;20186;-77
2023/03/14 05:48:18;;;;;;;0.50;0.30;;;9.80;99.90;;;;;;5047937;28;20269;-77
2023/03/14 05:50:44;;;;;;;0.50;0.40;;;9.80;99.90;;;;;;5045721;28;20182;-77
2023/03/14 05:53:09;;;;;;;1.33;0.60;;;9.80;99.90;;;;;;5043863;28;20444;-77
2023/03/14 05:55:35;;;;;;;1.27;0.73;;;9.80;99.90;;;;;;5046490;28;20968;-78
2023/03/14 05:58:01;;;;;;;1.30;0.97;;;9.80;99.90;;;;;;5046613;28;20708;-77
2023/03/14 06:00:26;;;;;;;3.53;1.27;;;9.80;99.90;;;;;;5048117;28;20639;-77
2023/03/14 06:02:52;;;;;;;2.03;1.20;;;9.80;99.90;;;;;;5046733;28;20670;-78
2023/03/14 06:05:18;;;;;;;1.47;0.90;;;9.90;99.90;;;;;;5045296;28;20186;-77
2023/03/14 06:07:43;;;;;;;3.70;1.17;;;9.90;99.90;;;;;;5044825;28;20209;-78
2023/03/14 06:10:09;;;;;;;1.23;1.03;;;9.80;99.90;;;;;;5031558;28;20265;-77
2023/03/14 06:12:35;;;;;;;1.63;1.13;;;9.90;99.90;;;;;;5048825;28;20235;-77
2023/03/14 06:15:02;;;;;;;4.40;1.20;;;9.80;99.90;;;;;;5047473;28;20464;-77
2023/03/14 06:17:28;;;;;;;1.30;0.87;;;9.90;99.90;;;;;;5051830;28;20513;-77
2023/03/14 06:19:53;;;;;;;1.77;1.20;;;9.90;99.90;;;;;;5050501;28;20573;-77
2023/03/14 06:22:19;;;;;;;1.20;0.70;;;9.90;99.90;;;;;;5051671;28;20220;-77
2023/03/14 06:24:45;;;;;;;2.87;1.10;;;9.90;99.90;;;;;;5051072;28;20185;-77
2023/03/14 06:27:11;;;;;;;1.10;0.70;;;9.90;99.90;;;;;;5051185;28;20427;-77
2023/03/14 06:29:36;;;;;;;2.67;1.00;;;10.00;99.90;;;;;;5051876;28;20177;-77
2023/03/14 06:32:02;;;;;;;3.30;1.30;;;10.00;99.90;;;;;;5050566;28;20544;-77
2023/03/14 06:34:28;;;;;;;1.20;0.87;;;10.00;99.90;;;;;;5037653;28;20213;-77
2023/03/14 06:36:54;;;;;;;2.00;0.97;;;10.10;99.90;;;;;;5048312;28;20617;-77
2023/03/14 06:39:19;;;;;;;2.80;1.00;;;10.10;99.90;;;;;;5070530;28;20195;-76
2023/03/14 06:41:45;;;;;;;1.50;0.83;;;10.00;99.90;;;;;;5070724;28;20551;-76
2023/03/14 06:44:10;;;;;;;1.67;0.90;;;10.00;99.90;;;;;;5069302;28;20205;-77
2023/03/14 06:46:36;;;;;;;1.50;0.60;;;10.00;99.90;;;;;;5057429;28;20344;-76
2023/03/14 06:49:02;;;;;;;1.33;0.67;;;10.10;99.90;;;;;;5048753;28;20182;-76
2023/03/14 06:51:28;;;;;;;3.53;0.73;;;10.10;99.90;;;;;;5049472;28;20215;-77
2023/03/14 06:53:54;;;;;;;1.50;1.23;;;10.10;99.90;;;;;;5050263;28;20817;-76
2023/03/14 06:56:19;;;;;;;2.50;0.90;;;10.10;99.90;;;;;;5050775;28;20779;-77
2023/03/14 06:58:45;;;;;;;1.53;0.87;;;10.10;99.90;;;;;;5050495;28;20521;-76
2023/03/14 07:01:25;;;;;;;1.20;1.00;;;10.10;99.90;;;;;;5050570;28;20185;-77
2023/03/14 07:03:51;;;;;;;2.00;1.47;;;10.10;99.90;;;;;;5050458;28;20295;-77
2023/03/14 07:06:17;;;;;;;4.20;1.37;;;10.10;99.90;;;;;;5050684;28;20507;-77
2023/03/14 07:08:42;;;;;;;1.10;0.60;;;10.10;99.90;;;;;;5048399;28;20364;-76
2023/03/14 07:11:10;;;;;;;0.87;0.60;;;10.10;99.90;;;;;;5047438;28;20296;-77
2023/03/14 07:13:37;;;;;;;1.47;1.20;;;10.10;99.90;;;;;;5048399;28;20260;-77
2023/03/14 07:16:03;;;;;;;1.20;0.83;;;10.10;99.90;;;;;;5048992;28;20466;-77
2023/03/14 07:18:29;;;;;;;1.40;0.70;;;10.10;99.90;;;;;;5048425;28;20525;-76
2023/03/14 07:20:54;;;;;;;1.27;0.70;;;10.10;99.90;;;;;;5049016;28;20420;-76
2023/03/14 07:23:20;;;;;;;1.60;0.87;;;10.10;99.90;;;;;;5046486;28;20211;-77
2023/03/14 07:25:46;;;;;;;1.10;0.70;;;10.20;99.90;;;;;;5048236;28;20269;-77
2023/03/14 07:28:11;;;;;;;1.30;0.70;;;10.20;99.90;;;;;;5048080;28;20182;-77
2023/03/14 07:30:37;;;;;;;2.00;0.80;;;10.20;99.90;;;;;;5046960;28;20188;-77
2023/03/14 07:33:03;;;;;;;2.07;0.87;;;10.20;99.90;;;;;;5046534;28;20218;-77
2023/03/14 07:35:28;;;;;;;1.20;1.00;;;10.20;99.90;;;;;;5048162;28;20693;-77
2023/03/14 07:37:54;;;;;;;1.80;1.00;;;10.20;99.90;;;;;;5047913;28;20256;-76
2023/03/14 07:40:20;;;;;;;0.77;0.70;;;10.30;99.90;;;;;;5048554;28;20178;-77
2023/03/14 07:42:46;;;;;;;0.93;0.80;;;10.30;99.90;;;;;;5049765;28;20202;-77
2023/03/14 07:45:12;;;;;;;1.00;0.90;;;10.40;99.90;;;;;;5046986;28;20205;-76
2023/03/14 07:47:38;;;;;;;1.37;0.83;;;10.40;99.90;;;;;;5038419;28;20420;-77
2023/03/14 07:50:05;;;;;;;1.03;0.83;;;10.30;99.90;;;;;;5038254;28;20420;-76
2023/03/14 07:52:31;;;;;;;2.23;0.93;;;10.30;99.90;;;;;;5037257;28;20437;-77
2023/03/14 07:54:56;;;;;;;1.37;1.20;;;10.30;99.90;;;;;;5029529;28;20767;-77
2023/03/14 07:57:23;;;;;;;1.40;1.03;;;10.30;99.90;;;;;;5034147;28;20657;-76
2023/03/14 07:59:49;;;;;;;4.10;1.23;;;10.40;99.90;;;;;;5037853;28;20175;-76
2023/03/14 08:02:15;;;;;;;1.73;1.10;;;10.30;99.90;;;;;;5071849;28;20950;-77
2023/03/14 08:04:41;;;;;;;2.53;1.53;;;10.30;99.90;;;;;;5037634;28;20194;-76
2023/03/14 08:07:07;;;;;;;1.70;1.50;;;10.30;99.90;;;;;;5037966;28;20783;-77
2023/03/14 08:09:32;;;;;;;1.47;1.30;;;10.30;99.90;;;;;;5044871;28;20901;-76
2023/03/14 08:11:58;;;;;;;2.90;1.90;;;10.30;99.90;;;;;;5042716;28;20460;-77
2023/03/14 08:14:24;;;;;;;1.67;1.57;;;10.30;99.90;;;;;;5049092;28;20599;-76
2023/03/14 08:16:51;;;;;;;3.33;1.70;;;10.40;99.90;;;;;;5039561;28;20213;-77
2023/03/14 08:19:16;;;;;;;2.03;1.60;;;10.30;99.90;;;;;;5030587;28;20262;-77
2023/03/14 08:21:42;;;;;;;1.63;1.53;;;10.40;99.90;;;;;;5029310;28;20506;-77
2023/03/14 08:24:08;;;;;;;1.70;1.60;;;10.40;99.90;;;;;;5029383;28;20226;-77
2023/03/14 08:26:33;;;;;;;1.70;1.60;;;10.50;99.90;;;;;;5029852;28;20639;-77
2023/03/14 08:28:59;;;;;;;1.83;1.53;;;10.40;99.90;;;;;;5028200;28;20236;-77
2023/03/14 08:31:25;;;;;;;2.40;1.80;;;10.40;99.90;;;;;;5029684;28;20190;-77
2023/03/14 08:33:51;;;;;;;2.40;2.20;;;10.40;99.90;;;;;;5029316;28;20217;-77
2023/03/14 08:36:18;;;;;;;2.57;1.83;;;10.50;99.90;;;;;;5036390;28;20196;-77
2023/03/14 08:38:44;;;;;;;1.87;1.70;;;10.50;99.90;;;;;;5067530;28;20922;-76
2023/03/14 08:41:10;;;;;;;1.90;1.40;;;10.50;99.90;;;;;;5069431;28;20408;-77
2023/03/14 08:43:36;;;;;;;1.53;1.27;;;10.50;99.90;;;;;;5066662;28;20192;-76
2023/03/14 08:46:02;;;;;;;3.83;1.40;;;10.50;99.90;;;;;;5029086;28;20483;-76
2023/03/14 08:48:29;;;;;;;1.53;1.30;;;10.60;99.90;;;;;;5027525;28;20183;-76
2023/03/14 08:51:15;;;;;;;2.17;1.40;;;10.60;99.90;;;;;;5035430;28;20921;-76
2023/03/14 08:53:41;;;;;;;1.93;1.20;;;10.60;99.90;;;;;;5028351;28;20477;-76
2023/03/14 08:56:09;;;;;;;1.40;1.30;;;10.60;99.90;;;;;;5028531;28;20962;-75
2023/03/14 08:58:37;;;;;;;1.40;1.30;;;10.60;99.90;;;;;;5027301;28;20418;-76
2023/03/14 09:01:07;;;;;;;1.23;1.13;;;10.70;99.90;;;;;;5028596;28;20417;-76
2023/03/14 09:03:33;;;;;;;2.23;1.40;;;10.70;99.90;;;;;;5028428;28;20448;-76
2023/03/14 09:06:03;;;;;;;2.10;1.23;;;10.70;99.90;;;;;;5027849;28;20414;-76
2023/03/14 09:08:29;;;;;;;3.67;1.60;;;10.70;99.90;;;;;;5027223;28;20189;-76
2023/03/14 09:10:55;;;;;;;2.00;1.30;;;10.70;99.90;;;;;;5028124;28;20418;-76
2023/03/14 09:13:20;;;;;;;1.53;1.13;;;10.70;99.90;;;;;;5048223;28;20413;-76
2023/03/14 09:15:54;;;;;;;2.20;1.50;;;10.70;99.90;;;;;;5047194;28;20201;-76
2023/03/14 09:18:20;;;;;;;1.63;1.27;;;10.80;99.90;;;;;;5048367;28;20182;-76
2023/03/14 09:20:45;;;;;;;1.50;1.37;;;10.80;99.90;;;;;;5048106;28;20404;-76
2023/03/14 09:23:11;;;;;;;1.53;1.27;;;10.70;99.90;;;;;;5047951;28;20779;-76
2023/03/14 09:25:37;;;;;;;1.03;0.93;;;10.70;99.90;;;;;;5048400;28;20178;-76
2023/03/14 09:28:02;;;;;;;0.60;0.60;;;10.70;99.90;;;;;;5048100;28;20177;-76
2023/03/14 09:30:28;;;;;;;1.97;0.60;;;10.60;99.90;;;;;;5048370;28;20675;-76
2023/03/14 09:32:54;;;;;;;0.50;0.33;;;10.50;99.90;;;;;;5046802;28;20490;-76
2023/03/14 09:35:19;;;;;;;0.90;0.57;;;10.50;99.90;;;;;;5047990;28;20182;-76
2023/03/14 09:37:45;;;;;;;1.40;0.53;;;10.50;99.90;;;;;;5046626;28;20169;-76
2023/03/14 09:40:14;;;;;;;0.90;0.50;;;10.50;99.90;;;;;;5046885;28;20178;-76
2023/03/14 09:42:40;;;;;;;0.73;0.70;;;10.50;99.90;;;;;;5046775;28;20189;-75
2023/03/14 09:45:18;;;;;;;1.17;0.70;;;10.40;99.90;;;;;;5046678;28;20412;-76
2023/03/14 09:47:45;;;;;;;1.07;0.50;;;10.50;99.90;;;;;;5048075;28;20812;-76
2023/03/14 09:50:15;;;;;;;1.00;0.63;;;10.30;99.90;;;;;;5048121;28;20412;-76
2023/03/14 09:52:46;;;;;;;1.60;0.77;;;10.20;99.90;;;;;;5051969;28;20428;-76
2023/03/14 09:55:15;;;;;;;1.13;0.83;;;10.20;99.90;;;;;;5050722;28;20408;-76
2023/03/14 09:57:43;;;;;;;2.40;0.90;;;10.10;99.90;;;;;;5051583;28;20409;-76
2023/03/14 10:00:25;;;;;;;1.73;0.90;;;10.00;99.90;;;;;;5051916;28;20477;-75
2023/03/14 10:03:12;;;;;;;0.80;0.77;;;10.00;99.90;;;;;;5052019;28;20428;-76
2023/03/14 10:05:42;;;;;;;1.57;0.80;;;9.90;99.90;;;;;;5051014;28;20836;-76
2023/03/14 10:08:11;;;;;;;1.30;1.00;;;9.90;99.90;;;;;;5051577;28;20829;-76
2023/03/14 10:10:37;;;;;;;1.47;0.77;;;9.80;99.90;;;;;;5051620;28;20817;-76
2023/03/14 10:13:17;;;;;;;0.73;0.73;;;9.90;99.90;;;;;;5051256;28;20456;-76
2023/03/14 10:15:51;;;;;;;0.87;0.80;;;9.80;99.90;;;;;;5051538;28;20228;-76
2023/03/14 10:18:16;;;;;;;2.00;0.87;;;9.80;99.90;;;;;;5051521;28;20404;-76
2023/03/14 10:20:48;;;;;;;1.20;0.80;;;9.80;99.90;;;;;;5051324;28;20406;-76
2023/03/14 10:23:14;;;;;;;1.30;0.83;;;9.80;99.90;;;;;;5051089;28;20296;-76
2023/03/14 10:25:46;;;;;;;4.27;1.30;;;9.80;99.90;;;;;;5050185;28;20448;-76
2023/03/14 10:28:28;;;;;;;1.47;1.10;;;9.70;99.90;;;;;;5051072;28;20420;-76
2023/03/14 10:30:55;;;;;;;0.80;0.80;;;9.70;99.90;;;;;;5049801;28;20513;-76
2023/03/14 10:33:28;;;;;;;1.20;1.10;;;9.70;99.90;;;;;;5033043;28;20509;-76
2023/03/14 10:36:26;;;;;;;3.33;1.20;;;9.70;99.90;;;;;;5049865;28;20467;-76
2023/03/14 10:39:16;;;;;;;2.00;1.50;;;9.70;99.90;;;;;;5049516;28;20416;-76
2023/03/14 10:41:50;;;;;;;2.03;1.60;;;9.70;99.90;;;;;;5051088;28;20400;-76
2023/03/14 10:44:20;;;;;;;1.23;1.10;;;9.70;99.90;;;;;;5050720;28;20471;-76
2023/03/14 10:46:55;;;;;;;3.80;1.53;;;9.70;99.90;;;;;;5050992;28;20415;-76
2023/03/14 10:49:35;;;;;;;2.00;0.90;;;9.60;99.90;;;;;;5050661;28;20420;-76
2023/03/14 10:52:22;;;;;;;1.60;1.10;;;9.60;99.90;;;;;;5050742;28;20499;-76
2023/03/14 10:54:56;;;;;;;1.70;0.90;;;9.60;99.90;;;;;;5046423;28;20941;-75
2023/03/14 10:57:22;;;;;;;1.47;1.00;;;9.50;99.90;;;;;;5049473;28;20455;-76
2023/03/14 10:59:47;;;;;;;1.77;1.33;;;9.40;99.90;;;;;;5050479;28;20935;-76
2023/03/14 11:02:27;;;;;;;1.67;1.13;;;9.50;99.90;;;;;;5050272;28;20174;-76
2023/03/14 11:05:07;;;;;;;1.60;1.07;;;9.40;99.90;;;;;;5049732;28;20181;-76
2023/03/14 11:07:40;;;;;;;3.90;1.33;;;9.30;99.90;;;;;;5049213;28;20412;-76
2023/03/14 11:10:34;;;;;;;1.13;1.00;;;9.20;99.90;;;;;;5050393;28;20420;-76
2023/03/14 11:13:15;;;;;;;1.17;0.80;;;9.20;99.90;;;;;;5050064;28;20874;-76
2023/03/14 11:16:08;;;;;;;2.03;1.20;;;9.10;99.90;;;;;;5050450;28;20956;-76
2023/03/14 11:18:58;;;;;;;2.40;1.30;;;9.10;99.90;;;;;;5032191;28;20416;-76
2023/03/14 11:21:46;;;;;;;1.20;1.00;;;9.00;99.90;;;;;;5048875;28;20400;-75
2023/03/14 11:24:33;;;;;;;2.33;1.07;;;9.00;99.90;;;;;;5050015;28;20433;-76
2023/03/14 11:27:23;;;;;;;1.23;1.10;;;8.90;99.90;;;;;;5050071;28;20404;-76
2023/03/14 11:29:55;;;;;;;2.63;1.63;;;9.00;99.90;;;;;;5048651;28;20937;-76
2023/03/14 11:32:42;;;;;;;1.73;0.90;;;9.00;99.90;;;;;;5050059;28;20505;-76
2023/03/14 11:35:34;;;;;;;0.77;0.70;;;9.00;99.90;;;;;;5048711;28;20417;-77
2023/03/14 11:38:14;;;;;;;2.00;1.00;;;9.20;99.90;;;;;;5049829;28;20527;-76
2023/03/14 11:40:41;;;;;;;0.80;0.67;;;9.10;99.90;;;;;;5049907;28;20461;-76
2023/03/14 11:43:13;;;;;;;1.10;0.67;;;9.00;99.90;;;;;;5049268;28;20435;-77
2023/03/14 11:45:42;;;;;;;1.20;0.70;;;9.10;99.90;;;;;;5031966;28;20458;-77
2023/03/14 11:48:40;;;;;;;2.43;0.90;;;9.10;99.90;;;;;;5049558;28;20974;-76
2023/03/14 11:51:22;;;;;;;1.40;0.80;;;9.10;99.90;;;;;;5040863;28;20416;-77
2023/03/14 11:54:09;;;;;;;1.00;0.80;;;9.10;99.90;;;;;;5049599;28;20432;-77
2023/03/14 11:57:00;;;;;;;1.00;0.90;;;9.00;99.90;;;;;;5049748;28;20543;-76
2023/03/14 11:59:57;;;;;;;1.27;0.80;;;9.10;99.90;;;;;;5049503;28;20909;-76
2023/03/14 12:02:46;;;;;;;1.00;0.90;;;9.00;99.90;;;;;;5049561;28;20409;-76
2023/03/14 12:05:32;;;;;;;3.03;0.90;;;8.90;99.90;;;;;;5048800;28;20422;-76
2023/03/14 12:08:07;;;;;;;2.00;0.90;;;8.80;99.90;;;;;;5049231;28;20465;-77
2023/03/14 12:10:42;;;;;;;1.73;0.80;;;8.80;99.90;;;;;;5049252;28;20498;-76
2023/03/14 12:13:14;;;;;;;2.50;0.80;;;8.70;99.90;;;;;;5047974;28;20448;-76
2023/03/14 12:15:47;;;;;;;1.87;0.90;;;8.70;99.90;;;;;;5049348;28;20460;-76
2023/03/14 12:18:25;;;;;;;2.03;1.00;;;8.60;99.90;;;;;;5047826;28;20479;-76
2023/03/14 12:21:10;;;;;;;1.30;1.00;;;8.60;99.90;;;;;;5049076;28;20454;-77
2023/03/14 12:23:54;;;;;;;2.40;2.20;;;8.50;99.90;;;;;;5048827;28;20444;-76
2023/03/14 12:26:29;;;;;;;2.10;1.10;;;8.50;99.90;;;;;;5047956;28;20409;-76
2023/03/14 12:28:57;;;;;;;1.47;0.93;;;8.50;99.90;;;;;;5048884;28;20416;-76
2023/03/14 12:31:32;;;;;;;2.43;1.10;;;8.50;99.90;;;;;;5048859;28;20424;-76
2023/03/14 12:34:03;;;;;;;1.40;1.30;;;8.50;99.90;;;;;;5048730;28;20439;-76
2023/03/14 12:36:50;;;;;;;1.27;0.90;;;8.60;99.90;;;;;;5048984;28;20783;-76
2023/03/14 12:39:43;;;;;;;1.73;1.20;;;8.70;99.90;;;;;;5049752;28;20764;-77
2023/03/14 12:42:31;;;;;;;2.40;1.40;;;8.80;99.90;;;;;;5048985;28;20412;-76
2023/03/14 12:45:30;;;;;;;2.37;1.47;;;8.90;99.90;;;;;;5047875;28;20937;-76
2023/03/14 12:48:19;;;;;;;3.53;1.10;;;9.00;99.90;;;;;;5048898;28;20428;-76
2023/03/14 12:51:01;;;;;;;2.07;1.10;;;9.00;99.90;;;;;;5047771;28;20782;-77
2023/03/14 12:53:51;;;;;;;2.77;1.60;;;9.10;99.90;;;;;;5047410;28;20937;-77
2023/03/14 12:56:20;;;;;;;2.43;1.37;;;9.10;99.90;;;;;;5049034;28;20543;-77
2023/03/14 12:59:07;;;;;;;3.40;1.43;;;9.10;99.90;;;;;;5048749;28;20427;-76
2023/03/14 13:01:34;;;;;;;2.53;1.47;;;9.10;99.90;;;;;;5047490;28;20415;-77
2023/03/14 13:04:11;;;;;;;6.30;1.70;;;9.00;99.90;;;;;;5047586;28;20504;-77